createdAt,value
2023-01-12T00:07:16.033Z,3.42
2023-01-12T00:14:48.041Z,3.63
2023-01-12T00:22:20.485Z,3.53
2023-01-12T00:29:52.220Z,3.50
2023-01-12T00:37:25.079Z,3.05
2023-01-12T00:45:15.367Z,3.42
2023-01-12T00:52:47.110Z,2.83
2023-01-12T01:00:19.787Z,3.03
2023-01-12T01:07:51.521Z,2.28
2023-01-12T01:15:23.284Z,2.88
2023-01-12T01:22:55.073Z,2.78
2023-01-12T01:30:26.799Z,3.08
2023-01-12T01:37:58.551Z,3.15
2023-01-12T01:45:30.305Z,2.70
2023-01-12T01:53:05.081Z,2.92
2023-01-12T02:00:38.226Z,2.40
2023-01-12T02:08:32.080Z,2.20
2023-01-12T02:16:21.086Z,2.08
2023-01-12T02:24:33.204Z,3.10
2023-01-12T02:32:48.498Z,2.78
2023-01-12T02:40:32.845Z,2.45
2023-01-12T02:48:11.067Z,2.70
2023-01-12T02:55:43.627Z,2.47
2023-01-12T03:03:17.188Z,2.05
2023-01-12T03:11:13.295Z,2.10
2023-01-12T03:19:06.132Z,2.08
2023-01-12T03:26:42.734Z,2.40
2023-01-12T03:34:14.449Z,2.35
2023-01-12T03:41:56.746Z,2.05
2023-01-12T03:49:53.202Z,2.20
2023-01-12T03:57:25.195Z,1.85
2023-01-12T04:04:56.927Z,1.77
2023-01-12T04:12:28.663Z,1.90
2023-01-12T04:20:00.445Z,2.10
2023-01-12T04:27:32.215Z,2.28
2023-01-12T04:35:05.270Z,2.05
2023-01-12T04:42:56.087Z,1.50
2023-01-12T04:50:27.824Z,1.33
2023-01-12T04:57:59.568Z,1.88
2023-01-12T05:05:33.075Z,1.52
2023-01-12T05:13:04.815Z,1.88
2023-01-12T05:20:36.918Z,1.40
2023-01-12T05:28:08.685Z,2.08
2023-01-12T05:35:40.495Z,2.20
2023-01-12T05:43:33.588Z,2.47
2023-01-12T05:51:07.764Z,2.42
2023-01-12T05:58:41.042Z,2.55
2023-01-12T06:06:12.804Z,2.63
2023-01-12T06:13:59.616Z,2.47
2023-01-12T06:21:32.678Z,2.67
2023-01-12T06:29:06.936Z,2.50
2023-01-12T06:36:39.452Z,1.70
2023-01-12T06:44:11.253Z,1.83
2023-01-12T06:51:43.680Z,2.25
2023-01-12T06:59:15.487Z,1.75
2023-01-12T07:06:48.237Z,1.63
2023-01-12T07:14:20.006Z,1.50
2023-01-12T07:21:51.752Z,1.67
2023-01-12T07:29:23.837Z,1.58
2023-01-12T07:36:55.608Z,1.35
2023-01-12T07:44:27.383Z,1.80
2023-01-12T07:51:59.139Z,1.65
2023-01-12T07:59:30.868Z,1.08
2023-01-12T08:07:03.200Z,1.00
2023-01-12T08:14:37.300Z,1.73
2023-01-12T08:22:15.779Z,1.38
2023-01-12T08:29:49.092Z,1.63
2023-01-12T08:37:22.733Z,1.77
2023-01-12T08:44:54.762Z,1.70
2023-01-12T08:52:29.317Z,1.15
2023-01-12T09:00:01.121Z,1.60
2023-01-12T09:07:33.173Z,2.10
2023-01-12T09:15:05.445Z,1.05
2023-01-12T09:22:37.205Z,1.30
2023-01-12T09:30:10.051Z,1.13
2023-01-12T09:37:43.604Z,1.10
2023-01-12T09:45:39.160Z,0.85
2023-01-12T09:53:31.543Z,1.15
2023-01-12T10:01:14.582Z,0.80
2023-01-12T10:09:00.963Z,1.55
2023-01-12T10:16:52.034Z,1.02
2023-01-12T10:24:24.727Z,1.15
2023-01-12T10:31:56.506Z,1.10
2023-01-12T10:39:34.169Z,1.00
2023-01-12T10:47:09.884Z,1.40
2023-01-12T10:54:43.363Z,1.10
2023-01-12T11:02:15.891Z,1.02
2023-01-12T11:09:48.013Z,1.20
2023-01-12T11:17:38.695Z,1.10
2023-01-12T11:25:13.685Z,1.15
2023-01-12T11:33:08.908Z,0.75
2023-01-12T11:40:40.681Z,0.98
2023-01-12T11:48:22.861Z,1.15
2023-01-12T11:56:37.025Z,1.73
2023-01-12T12:04:41.998Z,1.00
2023-01-12T12:12:34.516Z,1.60
2023-01-12T12:20:31.713Z,1.98
2023-01-12T12:28:48.378Z,1.88
2023-01-12T12:36:29.345Z,1.80
2023-01-12T12:45:05.198Z,1.65
2023-01-12T12:52:37.073Z,1.95
2023-01-12T13:00:30.808Z,1.30
2023-01-12T13:08:02.705Z,2.00
2023-01-12T13:15:37.187Z,1.65
2023-01-12T13:23:45.490Z,1.65
2023-01-12T13:31:32.873Z,1.38
2023-01-12T13:39:06.002Z,1.70
2023-01-12T13:46:51.442Z,1.65
2023-01-12T13:54:23.247Z,1.13
2023-01-12T14:01:55.653Z,1.30
2023-01-12T14:10:24.132Z,1.65
2023-01-12T14:18:23.532Z,1.05
2023-01-12T14:26:10.500Z,1.67
2023-01-12T14:33:49.491Z,1.13
2023-01-12T14:41:42.691Z,0.90
2023-01-12T14:49:21.344Z,1.00
2023-01-12T14:57:00.238Z,1.05
2023-01-12T15:04:32.069Z,1.10
2023-01-12T15:12:28.616Z,1.10
2023-01-12T15:20:18.762Z,1.05
2023-01-12T15:27:50.505Z,1.45
2023-01-12T15:35:26.404Z,1.17
2023-01-12T15:42:59.783Z,1.52
2023-01-12T15:50:32.920Z,1.35
2023-01-12T15:58:04.842Z,1.27
2023-01-12T16:05:36.658Z,1.17
2023-01-12T16:13:09.446Z,1.27
2023-01-12T16:20:41.205Z,1.67
2023-01-12T16:28:12.934Z,1.63
2023-01-12T16:35:45.105Z,1.75
2023-01-12T16:43:21.060Z,1.13
2023-01-12T16:50:52.824Z,1.40
2023-01-12T16:58:24.546Z,1.52
2023-01-12T17:05:56.412Z,2.83
2023-01-12T17:13:28.356Z,2.45
2023-01-12T17:21:05.403Z,3.15
2023-01-12T17:28:37.352Z,2.97
2023-01-12T17:36:10.654Z,2.90
2023-01-12T17:43:42.446Z,4.07
2023-01-12T17:51:15.090Z,4.30
2023-01-12T17:58:52.990Z,4.28
2023-01-12T18:06:26.726Z,7.40
2023-01-12T18:13:59.380Z,6.65
2023-01-12T18:21:31.322Z,7.25
2023-01-12T18:29:04.726Z,7.93
2023-01-12T18:36:38.911Z,10.38
2023-01-12T18:44:10.710Z,11.75
2023-01-12T18:52:00.822Z,12.57
2023-01-12T18:59:33.194Z,13.98
2023-01-12T19:07:05.135Z,14.52
2023-01-12T19:14:55.319Z,15.45
2023-01-12T19:22:45.572Z,14.20
2023-01-12T19:30:17.729Z,12.52
2023-01-12T19:37:49.626Z,8.80
2023-01-12T19:45:22.459Z,8.50
2023-01-12T19:52:54.246Z,9.55
2023-01-12T20:00:26.545Z,8.88
2023-01-12T20:07:58.304Z,9.32
2023-01-12T20:15:30.069Z,10.10
2023-01-12T20:23:01.914Z,10.68
2023-01-12T20:30:38.352Z,9.73
2023-01-12T20:38:15.472Z,10.70
2023-01-12T20:45:47.462Z,10.30
2023-01-12T20:53:19.370Z,12.38
2023-01-12T21:00:51.395Z,11.20
2023-01-12T21:08:23.298Z,12.55
2023-01-12T21:16:02.891Z,11.65
2023-01-12T21:23:34.684Z,11.93
2023-01-12T21:31:08.531Z,12.20
2023-01-12T21:38:40.375Z,11.43
2023-01-12T21:46:12.122Z,11.75
2023-01-12T21:53:43.864Z,11.35
2023-01-12T22:01:15.780Z,11.75
2023-01-12T22:08:47.982Z,10.00
2023-01-12T22:16:19.785Z,10.38
2023-01-12T22:23:51.538Z,10.15
2023-01-12T22:31:24.147Z,10.32
2023-01-12T22:38:55.989Z,10.23
2023-01-12T22:46:27.858Z,8.60
2023-01-12T22:53:59.589Z,9.13
2023-01-12T23:01:31.850Z,8.45
2023-01-12T23:09:03.759Z,8.90
2023-01-12T23:16:35.569Z,8.48
2023-01-12T23:24:07.469Z,8.10
2023-01-12T23:31:39.350Z,8.02
2023-01-12T23:39:12.121Z,7.15
2023-01-12T23:46:44.005Z,7.60
2023-01-12T23:54:17.265Z,6.65
